Aérodrome :
LOGIN :

S'inscrire | Disclaimer

   EN    FR    IT 

 










Légende :    VFR   VFR Marginal   IFR   IFR Intensif   IFR Très Intensif
Visi : 
Plafond : 
>= 8 km
>= 3000ft
5 à 8 km
1000 à 3000 ft
1500m à 5 km
500 à 1000 ft
800 à 1500m
200 à 500 ft
< 800m
< 200 ft
Symboles :   Orages  Brouillard  Fortes neiges  Fortes précipitations  Vent > 20 kt
SIGMETs :   Divers  Orages  Givrage  Turbulence  Onde Orograph.  Cendres Volcan.






- Altitude de l'aérodrome : 348 ft
- Code IATA : STN


EGSS - London Stansted

DERNIER METAR :
  • 122220Z 22010KT 9999 BKN006 OVC012 07/06 Q0973

METARs EXPIRÉS :
  • 122150Z AUTO 23011KT 9999 BKN010 07/06 Q0974
  • 122120Z AUTO 22010KT 9999 FEW010 SCT014 BKN033 07/06 Q0975
  • 122050Z AUTO 24011KT 9999 BKN027 OVC033 07/07 Q0975
  • 122020Z AUTO 25009KT 9999 BKN016 OVC028 07/07 Q0976
  • 121950Z AUTO 25005KT 9999 -RA FEW004/// SCT009/// BKN014/// //////CB 07/07 Q0976 RERA

TAF AMD TAF EGSS
Valide du 12 à 18h jusqu'au 14 à 00h UTC


121808Z 1218/1324 16014KT 9999 FEW004 SCT012
BECMG 1218/1221 22010KT
TEMPO 1218/1221 3000 RADZ BKN004
TEMPO 1221/1312 6000 SHRA BKN010
PROB40
TEMPO 1221/1307 BKN007
PROB30
TEMPO 1223/1303 3000 +SHRA
BECMG 1300/1303 28015KT
TEMPO 1302/1318 27018G28KT
ATIS : +44 1279 669 325



MET'MAP, la Météo Aéronautique d'un coup d'oeil ! - Copyright ORBIFLY Décembre 2007 - Disclaimer

ORBIFLY MET'MAP TEAM :

Programmation & Développement : Alexandra Zaïnal
Sur une idée originale de : Baudouin d'Aumeries
Assistance à la programmation : Marc-Olivier Méhu
Soutien technique & logistique : Manuel Goepfert

Contact : metmap@orbifly.com




SOURCES & CREDITS :

   NOAA